sensor_id;sensor_type;location;lat;lon;timestamp;P1;durP1;ratioP1;P2;durP2;ratioP2
50569;SDS011;36525;49.398;7.614;2023-04-25T00:02:12;25.15;;;19.27;;
50569;SDS011;36525;49.398;7.614;2023-04-25T00:04:40;23.20;;;17.77;;
50569;SDS011;36525;49.398;7.614;2023-04-25T00:07:07;26.40;;;20.58;;
50569;SDS011;36525;49.398;7.614;2023-04-25T00:09:35;23.67;;;17.55;;
50569;SDS011;36525;49.398;7.614;2023-04-25T00:12:02;21.80;;;19.50;;
50569;SDS011;36525;49.398;7.614;2023-04-25T00:14:29;20.98;;;17.67;;
50569;SDS011;36525;49.398;7.614;2023-04-25T00:16:56;26.90;;;19.23;;
50569;SDS011;36525;49.398;7.614;2023-04-25T00:19:24;23.35;;;18.80;;
50569;SDS011;36525;49.398;7.614;2023-04-25T00:21:55;25.58;;;18.63;;
50569;SDS011;36525;49.398;7.614;2023-04-25T00:24:23;19.60;;;15.93;;
50569;SDS011;36525;49.398;7.614;2023-04-25T00:26:50;20.73;;;17.65;;
50569;SDS011;36525;49.398;7.614;2023-04-25T00:29:18;19.63;;;14.50;;
50569;SDS011;36525;49.398;7.614;2023-04-25T00:31:45;16.85;;;13.48;;
50569;SDS011;36525;49.398;7.614;2023-04-25T00:34:12;19.45;;;15.40;;
50569;SDS011;36525;49.398;7.614;2023-04-25T00:36:40;20.73;;;17.45;;
50569;SDS011;36525;49.398;7.614;2023-04-25T00:39:07;25.15;;;18.42;;
50569;SDS011;36525;49.398;7.614;2023-04-25T00:41:34;22.60;;;18.35;;
50569;SDS011;36525;49.398;7.614;2023-04-25T00:44:02;21.23;;;16.77;;
50569;SDS011;36525;49.398;7.614;2023-04-25T00:46:38;19.02;;;15.10;;
50569;SDS011;36525;49.398;7.614;2023-04-25T00:49:06;16.42;;;13.85;;
50569;SDS011;36525;49.398;7.614;2023-04-25T00:51:33;13.85;;;11.68;;
50569;SDS011;36525;49.398;7.614;2023-04-25T00:54:01;14.43;;;12.30;;
50569;SDS011;36525;49.398;7.614;2023-04-25T00:56:29;14.18;;;10.80;;
50569;SDS011;36525;49.398;7.614;2023-04-25T00:58:57;17.05;;;13.88;;
50569;SDS011;36525;49.398;7.614;2023-04-25T01:01:24;13.23;;;11.15;;
50569;SDS011;36525;49.398;7.614;2023-04-25T01:03:52;18.65;;;13.93;;
50569;SDS011;36525;49.398;7.614;2023-04-25T01:06:21;17.33;;;12.88;;
50569;SDS011;36525;49.398;7.614;2023-04-25T01:08:48;16.48;;;13.63;;
50569;SDS011;36525;49.398;7.614;2023-04-25T01:11:15;14.63;;;12.13;;
50569;SDS011;36525;49.398;7.614;2023-04-25T01:13:43;12.57;;;10.38;;
50569;SDS011;36525;49.398;7.614;2023-04-25T01:16:10;11.82;;;10.18;;
50569;SDS011;36525;49.398;7.614;2023-04-25T01:18:41;13.30;;;10.18;;
50569;SDS011;36525;49.398;7.614;2023-04-25T01:21:11;12.55;;;8.05;;
50569;SDS011;36525;49.398;7.614;2023-04-25T01:23:42;10.75;;;8.23;;
50569;SDS011;36525;49.398;7.614;2023-04-25T01:26:10;9.68;;;7.75;;
50569;SDS011;36525;49.398;7.614;2023-04-25T01:28:39;8.50;;;6.78;;
50569;SDS011;36525;49.398;7.614;2023-04-25T01:31:09;9.32;;;7.82;;
50569;SDS011;36525;49.398;7.614;2023-04-25T01:33:38;10.27;;;7.40;;
50569;SDS011;36525;49.398;7.614;2023-04-25T01:36:05;13.75;;;9.43;;
50569;SDS011;36525;49.398;7.614;2023-04-25T01:38:33;13.07;;;10.40;;
50569;SDS011;36525;49.398;7.614;2023-04-25T01:41:04;9.73;;;8.30;;
50569;SDS011;36525;49.398;7.614;2023-04-25T01:43:35;14.35;;;10.73;;
50569;SDS011;36525;49.398;7.614;2023-04-25T01:46:02;12.77;;;8.90;;
50569;SDS011;36525;49.398;7.614;2023-04-25T01:48:30;9.57;;;7.88;;
50569;SDS011;36525;49.398;7.614;2023-04-25T01:50:58;14.85;;;10.75;;
50569;SDS011;36525;49.398;7.614;2023-04-25T01:53:25;14.32;;;10.13;;
50569;SDS011;36525;49.398;7.614;2023-04-25T01:55:53;13.45;;;9.10;;
50569;SDS011;36525;49.398;7.614;2023-04-25T01:58:23;14.05;;;10.57;;
50569;SDS011;36525;49.398;7.614;2023-04-25T02:00:51;14.13;;;12.25;;
50569;SDS011;36525;49.398;7.614;2023-04-25T02:03:18;16.33;;;12.65;;
50569;SDS011;36525;49.398;7.614;2023-04-25T02:05:46;17.30;;;13.60;;
50569;SDS011;36525;49.398;7.614;2023-04-25T02:08:13;18.30;;;13.50;;
50569;SDS011;36525;49.398;7.614;2023-04-25T02:10:43;16.08;;;12.50;;
50569;SDS011;36525;49.398;7.614;2023-04-25T02:13:10;19.50;;;15.20;;
50569;SDS011;36525;49.398;7.614;2023-04-25T02:15:37;19.15;;;15.63;;
50569;SDS011;36525;49.398;7.614;2023-04-25T02:18:05;17.77;;;14.32;;
50569;SDS011;36525;49.398;7.614;2023-04-25T02:20:33;20.33;;;14.98;;
50569;SDS011;36525;49.398;7.614;2023-04-25T02:23:00;16.92;;;13.45;;
50569;SDS011;36525;49.398;7.614;2023-04-25T02:25:27;15.15;;;12.90;;
50569;SDS011;36525;49.398;7.614;2023-04-25T02:27:55;16.05;;;13.27;;
50569;SDS011;36525;49.398;7.614;2023-04-25T02:30:21;21.17;;;16.00;;
50569;SDS011;36525;49.398;7.614;2023-04-25T02:33:06;21.10;;;15.63;;
50569;SDS011;36525;49.398;7.614;2023-04-25T02:35:34;23.55;;;15.82;;
50569;SDS011;36525;49.398;7.614;2023-04-25T02:38:01;22.67;;;17.15;;
50569;SDS011;36525;49.398;7.614;2023-04-25T02:40:28;22.10;;;16.83;;
50569;SDS011;36525;49.398;7.614;2023-04-25T02:42:55;25.40;;;17.33;;
50569;SDS011;36525;49.398;7.614;2023-04-25T02:45:23;18.63;;;15.25;;
50569;SDS011;36525;49.398;7.614;2023-04-25T02:47:50;20.70;;;16.52;;
50569;SDS011;36525;49.398;7.614;2023-04-25T02:50:17;20.50;;;17.08;;
50569;SDS011;36525;49.398;7.614;2023-04-25T02:52:44;23.30;;;19.52;;
50569;SDS011;36525;49.398;7.614;2023-04-25T02:55:13;21.92;;;17.80;;
50569;SDS011;36525;49.398;7.614;2023-04-25T02:57:41;27.45;;;19.35;;
50569;SDS011;36525;49.398;7.614;2023-04-25T03:00:08;25.63;;;20.15;;
50569;SDS011;36525;49.398;7.614;2023-04-25T03:02:38;24.23;;;18.67;;
50569;SDS011;36525;49.398;7.614;2023-04-25T03:05:08;28.60;;;21.35;;
50569;SDS011;36525;49.398;7.614;2023-04-25T03:07:36;25.40;;;19.52;;
50569;SDS011;36525;49.398;7.614;2023-04-25T03:10:06;22.73;;;18.17;;
50569;SDS011;36525;49.398;7.614;2023-04-25T03:12:35;29.23;;;21.80;;
50569;SDS011;36525;49.398;7.614;2023-04-25T03:15:02;27.73;;;20.98;;
50569;SDS011;36525;49.398;7.614;2023-04-25T03:17:30;23.90;;;19.27;;
50569;SDS011;36525;49.398;7.614;2023-04-25T03:19:57;23.45;;;19.27;;
50569;SDS011;36525;49.398;7.614;2023-04-25T03:22:24;23.92;;;18.42;;
50569;SDS011;36525;49.398;7.614;2023-04-25T03:24:51;21.33;;;18.13;;
50569;SDS011;36525;49.398;7.614;2023-04-25T03:27:19;25.50;;;20.17;;
50569;SDS011;36525;49.398;7.614;2023-04-25T03:29:46;23.27;;;18.50;;
50569;SDS011;36525;49.398;7.614;2023-04-25T03:32:14;22.45;;;18.55;;
50569;SDS011;36525;49.398;7.614;2023-04-25T03:34:41;24.27;;;19.15;;
50569;SDS011;36525;49.398;7.614;2023-04-25T03:37:08;25.98;;;21.52;;
50569;SDS011;36525;49.398;7.614;2023-04-25T03:39:36;19.67;;;17.58;;
50569;SDS011;36525;49.398;7.614;2023-04-25T03:42:04;20.20;;;16.52;;
50569;SDS011;36525;49.398;7.614;2023-04-25T03:44:31;18.23;;;16.33;;
50569;SDS011;36525;49.398;7.614;2023-04-25T03:46:58;23.52;;;18.30;;
50569;SDS011;36525;49.398;7.614;2023-04-25T03:49:25;20.85;;;17.25;;
50569;SDS011;36525;49.398;7.614;2023-04-25T03:51:53;20.13;;;16.70;;
50569;SDS011;36525;49.398;7.614;2023-04-25T03:54:20;18.98;;;15.40;;
50569;SDS011;36525;49.398;7.614;2023-04-25T03:56:47;18.02;;;14.63;;
50569;SDS011;36525;49.398;7.614;2023-04-25T03:59:14;20.40;;;15.73;;
50569;SDS011;36525;49.398;7.614;2023-04-25T04:01:42;18.88;;;16.52;;
50569;SDS011;36525;49.398;7.614;2023-04-25T04:04:09;19.48;;;16.92;;
50569;SDS011;36525;49.398;7.614;2023-04-25T04:06:37;25.05;;;19.63;;
50569;SDS011;36525;49.398;7.614;2023-04-25T04:09:05;25.38;;;18.63;;
50569;SDS011;36525;49.398;7.614;2023-04-25T04:11:36;21.02;;;16.48;;
50569;SDS011;36525;49.398;7.614;2023-04-25T04:14:11;25.65;;;20.25;;
50569;SDS011;36525;49.398;7.614;2023-04-25T04:16:39;18.50;;;15.18;;
50569;SDS011;36525;49.398;7.614;2023-04-25T04:19:06;22.80;;;18.83;;
50569;SDS011;36525;49.398;7.614;2023-04-25T04:21:33;20.92;;;16.77;;
50569;SDS011;36525;49.398;7.614;2023-04-25T04:24:01;19.33;;;16.10;;
50569;SDS011;36525;49.398;7.614;2023-04-25T04:26:28;20.83;;;17.42;;
50569;SDS011;36525;49.398;7.614;2023-04-25T04:28:58;19.85;;;16.13;;
50569;SDS011;36525;49.398;7.614;2023-04-25T04:31:25;27.38;;;19.73;;
50569;SDS011;36525;49.398;7.614;2023-04-25T04:33:52;25.98;;;20.27;;
50569;SDS011;36525;49.398;7.614;2023-04-25T04:36:19;30.70;;;24.63;;
50569;SDS011;36525;49.398;7.614;2023-04-25T04:38:48;34.28;;;26.40;;
50569;SDS011;36525;49.398;7.614;2023-04-25T04:41:16;29.35;;;23.25;;
50569;SDS011;36525;49.398;7.614;2023-04-25T04:43:43;25.30;;;19.55;;
50569;SDS011;36525;49.398;7.614;2023-04-25T04:46:11;26.77;;;21.35;;
50569;SDS011;36525;49.398;7.614;2023-04-25T04:48:39;29.42;;;22.08;;
50569;SDS011;36525;49.398;7.614;2023-04-25T04:51:06;24.00;;;20.13;;
50569;SDS011;36525;49.398;7.614;2023-04-25T04:53:33;29.70;;;21.35;;
50569;SDS011;36525;49.398;7.614;2023-04-25T04:56:01;28.02;;;21.70;;
50569;SDS011;36525;49.398;7.614;2023-04-25T04:58:28;23.52;;;18.58;;
50569;SDS011;36525;49.398;7.614;2023-04-25T05:00:56;28.38;;;21.85;;
50569;SDS011;36525;49.398;7.614;2023-04-25T05:03:23;24.25;;;20.40;;
50569;SDS011;36525;49.398;7.614;2023-04-25T05:05:50;28.67;;;22.10;;
50569;SDS011;36525;49.398;7.614;2023-04-25T05:08:18;30.02;;;22.60;;
50569;SDS011;36525;49.398;7.614;2023-04-25T05:10:45;31.95;;;24.50;;
50569;SDS011;36525;49.398;7.614;2023-04-25T05:13:13;24.63;;;20.23;;
50569;SDS011;36525;49.398;7.614;2023-04-25T05:15:40;27.38;;;21.05;;
50569;SDS011;36525;49.398;7.614;2023-04-25T05:18:08;21.73;;;17.98;;
50569;SDS011;36525;49.398;7.614;2023-04-25T05:20:35;22.60;;;18.85;;
50569;SDS011;36525;49.398;7.614;2023-04-25T05:23:03;28.08;;;21.00;;
50569;SDS011;36525;49.398;7.614;2023-04-25T05:25:31;24.95;;;18.63;;
50569;SDS011;36525;49.398;7.614;2023-04-25T05:27:57;22.73;;;19.05;;
50569;SDS011;36525;49.398;7.614;2023-04-25T05:30:25;18.92;;;14.98;;
50569;SDS011;36525;49.398;7.614;2023-04-25T05:32:52;24.00;;;16.83;;
50569;SDS011;36525;49.398;7.614;2023-04-25T05:35:19;23.42;;;17.77;;
50569;SDS011;36525;49.398;7.614;2023-04-25T05:37:46;26.17;;;18.27;;
50569;SDS011;36525;49.398;7.614;2023-04-25T05:40:13;23.05;;;17.58;;
50569;SDS011;36525;49.398;7.614;2023-04-25T05:42:41;22.00;;;16.25;;
50569;SDS011;36525;49.398;7.614;2023-04-25T05:45:08;20.58;;;16.55;;
50569;SDS011;36525;49.398;7.614;2023-04-25T05:47:35;19.90;;;16.85;;
50569;SDS011;36525;49.398;7.614;2023-04-25T05:50:02;22.10;;;17.20;;
50569;SDS011;36525;49.398;7.614;2023-04-25T05:52:30;24.75;;;18.25;;
50569;SDS011;36525;49.398;7.614;2023-04-25T05:54:57;23.30;;;17.92;;
50569;SDS011;36525;49.398;7.614;2023-04-25T05:57:26;18.98;;;15.73;;
50569;SDS011;36525;49.398;7.614;2023-04-25T05:59:53;22.40;;;16.30;;
50569;SDS011;36525;49.398;7.614;2023-04-25T06:02:21;18.95;;;15.05;;
50569;SDS011;36525;49.398;7.614;2023-04-25T06:04:49;18.63;;;14.73;;
50569;SDS011;36525;49.398;7.614;2023-04-25T06:07:18;21.02;;;16.95;;
50569;SDS011;36525;49.398;7.614;2023-04-25T06:09:47;18.02;;;14.05;;
50569;SDS011;36525;49.398;7.614;2023-04-25T06:12:14;17.38;;;14.23;;
50569;SDS011;36525;49.398;7.614;2023-04-25T06:14:41;18.08;;;14.68;;
50569;SDS011;36525;49.398;7.614;2023-04-25T06:17:08;17.65;;;14.35;;
50569;SDS011;36525;49.398;7.614;2023-04-25T06:19:35;14.23;;;11.60;;
50569;SDS011;36525;49.398;7.614;2023-04-25T06:22:03;13.68;;;10.88;;
50569;SDS011;36525;49.398;7.614;2023-04-25T06:24:30;16.90;;;14.48;;
50569;SDS011;36525;49.398;7.614;2023-04-25T06:26:57;18.67;;;14.80;;
50569;SDS011;36525;49.398;7.614;2023-04-25T06:29:25;18.17;;;13.07;;
50569;SDS011;36525;49.398;7.614;2023-04-25T06:31:53;17.50;;;13.55;;
50569;SDS011;36525;49.398;7.614;2023-04-25T06:34:20;13.80;;;11.60;;
50569;SDS011;36525;49.398;7.614;2023-04-25T06:36:47;20.05;;;14.35;;
50569;SDS011;36525;49.398;7.614;2023-04-25T06:39:17;16.88;;;13.50;;
50569;SDS011;36525;49.398;7.614;2023-04-25T06:41:46;13.98;;;11.05;;
50569;SDS011;36525;49.398;7.614;2023-04-25T06:44:14;17.52;;;13.02;;
50569;SDS011;36525;49.398;7.614;2023-04-25T06:46:41;20.92;;;14.18;;
50569;SDS011;36525;49.398;7.614;2023-04-25T06:49:09;16.40;;;12.10;;
50569;SDS011;36525;49.398;7.614;2023-04-25T06:51:36;16.15;;;12.90;;
50569;SDS011;36525;49.398;7.614;2023-04-25T06:54:03;13.48;;;11.02;;
50569;SDS011;36525;49.398;7.614;2023-04-25T06:56:31;13.45;;;11.73;;
50569;SDS011;36525;49.398;7.614;2023-04-25T06:58:58;16.15;;;13.52;;
50569;SDS011;36525;49.398;7.614;2023-04-25T07:01:27;15.88;;;12.73;;
50569;SDS011;36525;49.398;7.614;2023-04-25T07:03:55;15.90;;;11.43;;
50569;SDS011;36525;49.398;7.614;2023-04-25T07:06:22;16.00;;;13.68;;
50569;SDS011;36525;49.398;7.614;2023-04-25T07:08:49;15.00;;;11.98;;
50569;SDS011;36525;49.398;7.614;2023-04-25T07:11:18;15.38;;;10.75;;
50569;SDS011;36525;49.398;7.614;2023-04-25T07:13:45;13.48;;;11.45;;
50569;SDS011;36525;49.398;7.614;2023-04-25T07:16:12;12.32;;;9.18;;
50569;SDS011;36525;49.398;7.614;2023-04-25T07:18:40;11.80;;;9.75;;
50569;SDS011;36525;49.398;7.614;2023-04-25T07:21:07;14.48;;;10.70;;
50569;SDS011;36525;49.398;7.614;2023-04-25T07:23:35;12.30;;;9.10;;
50569;SDS011;36525;49.398;7.614;2023-04-25T07:26:03;13.75;;;8.65;;
50569;SDS011;36525;49.398;7.614;2023-04-25T07:28:31;11.10;;;8.43;;
50569;SDS011;36525;49.398;7.614;2023-04-25T07:30:58;13.30;;;9.65;;
50569;SDS011;36525;49.398;7.614;2023-04-25T07:33:25;11.45;;;9.45;;
50569;SDS011;36525;49.398;7.614;2023-04-25T07:35:52;11.95;;;9.25;;
50569;SDS011;36525;49.398;7.614;2023-04-25T07:38:19;11.48;;;8.88;;
50569;SDS011;36525;49.398;7.614;2023-04-25T07:40:47;10.65;;;8.35;;
50569;SDS011;36525;49.398;7.614;2023-04-25T07:43:15;10.15;;;7.60;;
50569;SDS011;36525;49.398;7.614;2023-04-25T07:45:43;13.60;;;10.20;;
50569;SDS011;36525;49.398;7.614;2023-04-25T07:48:11;12.65;;;10.23;;
50569;SDS011;36525;49.398;7.614;2023-04-25T07:50:41;15.45;;;10.85;;
50569;SDS011;36525;49.398;7.614;2023-04-25T07:53:08;13.57;;;10.52;;
50569;SDS011;36525;49.398;7.614;2023-04-25T07:55:39;16.38;;;12.65;;
50569;SDS011;36525;49.398;7.614;2023-04-25T07:58:07;16.45;;;13.55;;
50569;SDS011;36525;49.398;7.614;2023-04-25T08:00:35;14.68;;;10.23;;
50569;SDS011;36525;49.398;7.614;2023-04-25T08:03:02;14.77;;;11.73;;
50569;SDS011;36525;49.398;7.614;2023-04-25T08:05:29;15.07;;;11.25;;
50569;SDS011;36525;49.398;7.614;2023-04-25T08:07:57;15.70;;;12.00;;
50569;SDS011;36525;49.398;7.614;2023-04-25T08:10:24;13.10;;;10.93;;
50569;SDS011;36525;49.398;7.614;2023-04-25T08:12:51;20.00;;;14.38;;
50569;SDS011;36525;49.398;7.614;2023-04-25T08:15:20;16.50;;;12.82;;
50569;SDS011;36525;49.398;7.614;2023-04-25T08:17:48;25.15;;;16.73;;
50569;SDS011;36525;49.398;7.614;2023-04-25T08:20:15;22.45;;;16.75;;
50569;SDS011;36525;49.398;7.614;2023-04-25T08:22:43;23.10;;;18.02;;
50569;SDS011;36525;49.398;7.614;2023-04-25T08:25:10;25.52;;;19.40;;
50569;SDS011;36525;49.398;7.614;2023-04-25T08:27:55;25.35;;;19.33;;
50569;SDS011;36525;49.398;7.614;2023-04-25T08:30:23;10.80;;;6.25;;
50569;SDS011;36525;49.398;7.614;2023-04-25T08:32:50;9.35;;;6.53;;
50569;SDS011;36525;49.398;7.614;2023-04-25T08:35:17;12.70;;;6.57;;
50569;SDS011;36525;49.398;7.614;2023-04-25T08:37:44;10.23;;;6.82;;
50569;SDS011;36525;49.398;7.614;2023-04-25T08:40:12;10.95;;;7.00;;
50569;SDS011;36525;49.398;7.614;2023-04-25T08:42:41;9.30;;;6.30;;
50569;SDS011;36525;49.398;7.614;2023-04-25T08:45:09;13.73;;;7.50;;
50569;SDS011;36525;49.398;7.614;2023-04-25T08:47:37;10.10;;;6.30;;
50569;SDS011;36525;49.398;7.614;2023-04-25T08:50:06;9.00;;;6.35;;
50569;SDS011;36525;49.398;7.614;2023-04-25T08:52:44;10.02;;;6.78;;
50569;SDS011;36525;49.398;7.614;2023-04-25T08:55:14;10.05;;;7.30;;
50569;SDS011;36525;49.398;7.614;2023-04-25T08:57:42;10.27;;;6.65;;
50569;SDS011;36525;49.398;7.614;2023-04-25T09:00:12;8.60;;;6.15;;
50569;SDS011;36525;49.398;7.614;2023-04-25T09:02:41;12.35;;;8.88;;
50569;SDS011;36525;49.398;7.614;2023-04-25T09:05:12;14.35;;;9.02;;
50569;SDS011;36525;49.398;7.614;2023-04-25T09:07:40;14.05;;;9.50;;
50569;SDS011;36525;49.398;7.614;2023-04-25T09:10:08;12.02;;;9.07;;
50569;SDS011;36525;49.398;7.614;2023-04-25T09:12:35;18.92;;;9.95;;
50569;SDS011;36525;49.398;7.614;2023-04-25T09:15:08;17.35;;;9.90;;
50569;SDS011;36525;49.398;7.614;2023-04-25T09:17:41;13.52;;;8.25;;
50569;SDS011;36525;49.398;7.614;2023-04-25T09:20:13;13.40;;;8.15;;
50569;SDS011;36525;49.398;7.614;2023-04-25T09:22:41;12.63;;;8.23;;
50569;SDS011;36525;49.398;7.614;2023-04-25T09:25:10;12.32;;;8.75;;
50569;SDS011;36525;49.398;7.614;2023-04-25T09:27:52;18.30;;;9.32;;
50569;SDS011;36525;49.398;7.614;2023-04-25T09:30:29;11.38;;;7.05;;
50569;SDS011;36525;49.398;7.614;2023-04-25T09:33:07;11.98;;;7.70;;
50569;SDS011;36525;49.398;7.614;2023-04-25T09:35:42;11.18;;;7.15;;
50569;SDS011;36525;49.398;7.614;2023-04-25T09:38:14;16.13;;;7.78;;
50569;SDS011;36525;49.398;7.614;2023-04-25T09:40:45;13.85;;;6.43;;
50569;SDS011;36525;49.398;7.614;2023-04-25T09:43:22;15.45;;;7.70;;
50569;SDS011;36525;49.398;7.614;2023-04-25T09:45:50;13.13;;;7.65;;
50569;SDS011;36525;49.398;7.614;2023-04-25T09:48:25;14.77;;;8.20;;
50569;SDS011;36525;49.398;7.614;2023-04-25T09:53:41;14.93;;;6.85;;
50569;SDS011;36525;49.398;7.614;2023-04-25T09:56:10;13.80;;;6.47;;
50569;SDS011;36525;49.398;7.614;2023-04-25T09:58:39;14.18;;;6.82;;
50569;SDS011;36525;49.398;7.614;2023-04-25T10:01:08;16.05;;;7.70;;
50569;SDS011;36525;49.398;7.614;2023-04-25T10:03:37;14.27;;;7.72;;
50569;SDS011;36525;49.398;7.614;2023-04-25T10:06:18;14.52;;;7.22;;
50569;SDS011;36525;49.398;7.614;2023-04-25T10:08:46;11.23;;;6.75;;
50569;SDS011;36525;49.398;7.614;2023-04-25T10:11:17;13.02;;;6.85;;
50569;SDS011;36525;49.398;7.614;2023-04-25T10:13:45;12.27;;;6.18;;
50569;SDS011;36525;49.398;7.614;2023-04-25T10:16:14;11.27;;;6.70;;
50569;SDS011;36525;49.398;7.614;2023-04-25T10:18:42;14.52;;;8.23;;
50569;SDS011;36525;49.398;7.614;2023-04-25T10:21:09;16.17;;;7.97;;
50569;SDS011;36525;49.398;7.614;2023-04-25T10:23:37;16.77;;;8.00;;
50569;SDS011;36525;49.398;7.614;2023-04-25T10:26:05;16.95;;;8.85;;
50569;SDS011;36525;49.398;7.614;2023-04-25T10:28:58;18.55;;;9.40;;
50569;SDS011;36525;49.398;7.614;2023-04-25T10:31:27;21.95;;;9.80;;
50569;SDS011;36525;49.398;7.614;2023-04-25T10:33:57;21.80;;;9.10;;
50569;SDS011;36525;49.398;7.614;2023-04-25T10:36:26;15.52;;;8.85;;
50569;SDS011;36525;49.398;7.614;2023-04-25T10:38:58;13.35;;;7.35;;
50569;SDS011;36525;49.398;7.614;2023-04-25T10:41:46;20.23;;;8.13;;
50569;SDS011;36525;49.398;7.614;2023-04-25T10:44:22;10.15;;;5.85;;
50569;SDS011;36525;49.398;7.614;2023-04-25T10:46:55;15.33;;;6.70;;
50569;SDS011;36525;49.398;7.614;2023-04-25T10:49:34;11.65;;;6.13;;
50569;SDS011;36525;49.398;7.614;2023-04-25T10:54:52;15.05;;;5.50;;
50569;SDS011;36525;49.398;7.614;2023-04-25T10:57:40;13.13;;;6.18;;
50569;SDS011;36525;49.398;7.614;2023-04-25T11:00:15;9.55;;;3.95;;
50569;SDS011;36525;49.398;7.614;2023-04-25T11:02:52;7.25;;;4.10;;
50569;SDS011;36525;49.398;7.614;2023-04-25T11:05:32;10.07;;;3.90;;
50569;SDS011;36525;49.398;7.614;2023-04-25T11:08:24;5.90;;;3.45;;
50569;SDS011;36525;49.398;7.614;2023-04-25T11:11:12;6.10;;;3.28;;
50569;SDS011;36525;49.398;7.614;2023-04-25T11:13:40;5.88;;;2.70;;
50569;SDS011;36525;49.398;7.614;2023-04-25T11:16:07;6.43;;;3.42;;
50569;SDS011;36525;49.398;7.614;2023-04-25T11:18:40;4.32;;;2.58;;
50569;SDS011;36525;49.398;7.614;2023-04-25T11:21:09;5.38;;;2.40;;
50569;SDS011;36525;49.398;7.614;2023-04-25T11:23:37;5.30;;;2.38;;
50569;SDS011;36525;49.398;7.614;2023-04-25T11:26:05;4.15;;;2.35;;
50569;SDS011;36525;49.398;7.614;2023-04-25T11:28:32;7.78;;;3.10;;
50569;SDS011;36525;49.398;7.614;2023-04-25T11:30:59;5.72;;;2.47;;
50569;SDS011;36525;49.398;7.614;2023-04-25T11:33:26;4.32;;;2.10;;
50569;SDS011;36525;49.398;7.614;2023-04-25T11:35:54;4.85;;;2.47;;
50569;SDS011;36525;49.398;7.614;2023-04-25T11:38:25;3.90;;;1.92;;
50569;SDS011;36525;49.398;7.614;2023-04-25T11:40:54;5.25;;;2.50;;
50569;SDS011;36525;49.398;7.614;2023-04-25T11:43:22;4.80;;;2.00;;
50569;SDS011;36525;49.398;7.614;2023-04-25T11:45:50;5.32;;;2.35;;
50569;SDS011;36525;49.398;7.614;2023-04-25T11:48:18;6.43;;;2.33;;
50569;SDS011;36525;49.398;7.614;2023-04-25T11:50:51;4.90;;;1.92;;
50569;SDS011;36525;49.398;7.614;2023-04-25T11:53:20;5.35;;;2.22;;
50569;SDS011;36525;49.398;7.614;2023-04-25T11:55:47;5.80;;;2.40;;
50569;SDS011;36525;49.398;7.614;2023-04-25T11:58:17;7.28;;;2.53;;
50569;SDS011;36525;49.398;7.614;2023-04-25T12:00:45;5.57;;;2.28;;
50569;SDS011;36525;49.398;7.614;2023-04-25T12:03:17;5.63;;;2.30;;
50569;SDS011;36525;49.398;7.614;2023-04-25T12:05:45;5.63;;;2.20;;
50569;SDS011;36525;49.398;7.614;2023-04-25T12:08:20;5.93;;;2.13;;
50569;SDS011;36525;49.398;7.614;2023-04-25T12:10:47;6.72;;;2.08;;
50569;SDS011;36525;49.398;7.614;2023-04-25T12:13:18;8.20;;;2.78;;
50569;SDS011;36525;49.398;7.614;2023-04-25T12:15:56;6.30;;;2.63;;
50569;SDS011;36525;49.398;7.614;2023-04-25T12:18:24;5.00;;;1.90;;
50569;SDS011;36525;49.398;7.614;2023-04-25T12:20:54;5.45;;;2.30;;
50569;SDS011;36525;49.398;7.614;2023-04-25T12:23:25;6.82;;;2.63;;
50569;SDS011;36525;49.398;7.614;2023-04-25T12:25:54;4.43;;;2.30;;
50569;SDS011;36525;49.398;7.614;2023-04-25T12:28:24;4.18;;;2.13;;
50569;SDS011;36525;49.398;7.614;2023-04-25T12:36:00;4.78;;;2.55;;
50569;SDS011;36525;49.398;7.614;2023-04-25T12:38:40;5.97;;;2.40;;
50569;SDS011;36525;49.398;7.614;2023-04-25T12:41:09;7.57;;;3.08;;
50569;SDS011;36525;49.398;7.614;2023-04-25T12:43:36;4.53;;;1.90;;
50569;SDS011;36525;49.398;7.614;2023-04-25T12:46:03;4.60;;;2.20;;
50569;SDS011;36525;49.398;7.614;2023-04-25T12:48:31;4.47;;;2.28;;
50569;SDS011;36525;49.398;7.614;2023-04-25T12:50:59;5.80;;;1.90;;
50569;SDS011;36525;49.398;7.614;2023-04-25T12:53:29;5.10;;;1.92;;
50569;SDS011;36525;49.398;7.614;2023-04-25T12:55:58;3.58;;;1.70;;
50569;SDS011;36525;49.398;7.614;2023-04-25T12:58:25;4.20;;;2.08;;
50569;SDS011;36525;49.398;7.614;2023-04-25T13:00:53;5.75;;;2.10;;
50569;SDS011;36525;49.398;7.614;2023-04-25T13:03:20;5.00;;;1.90;;
50569;SDS011;36525;49.398;7.614;2023-04-25T13:05:48;3.22;;;1.90;;
50569;SDS011;36525;49.398;7.614;2023-04-25T13:08:16;5.93;;;1.83;;
50569;SDS011;36525;49.398;7.614;2023-04-25T13:10:44;4.28;;;1.40;;
50569;SDS011;36525;49.398;7.614;2023-04-25T13:13:22;4.43;;;1.70;;
50569;SDS011;36525;49.398;7.614;2023-04-25T13:15:58;3.40;;;1.10;;
50569;SDS011;36525;49.398;7.614;2023-04-25T13:18:51;6.53;;;1.42;;
50569;SDS011;36525;49.398;7.614;2023-04-25T13:25:32;4.85;;;1.60;;
50569;SDS011;36525;49.398;7.614;2023-04-25T13:27:59;4.80;;;1.70;;
50569;SDS011;36525;49.398;7.614;2023-04-25T13:30:28;4.35;;;1.52;;
50569;SDS011;36525;49.398;7.614;2023-04-25T13:32:55;8.27;;;1.42;;
50569;SDS011;36525;49.398;7.614;2023-04-25T13:35:23;3.38;;;1.40;;
50569;SDS011;36525;49.398;7.614;2023-04-25T13:37:51;6.60;;;1.80;;
50569;SDS011;36525;49.398;7.614;2023-04-25T13:40:18;6.07;;;1.83;;
50569;SDS011;36525;49.398;7.614;2023-04-25T13:42:45;4.85;;;1.55;;
50569;SDS011;36525;49.398;7.614;2023-04-25T13:45:12;4.50;;;1.38;;
50569;SDS011;36525;49.398;7.614;2023-04-25T13:47:40;4.68;;;1.45;;
50569;SDS011;36525;49.398;7.614;2023-04-25T13:50:07;6.38;;;1.73;;
50569;SDS011;36525;49.398;7.614;2023-04-25T13:52:36;4.72;;;1.30;;
50569;SDS011;36525;49.398;7.614;2023-04-25T13:55:03;5.38;;;1.40;;
50569;SDS011;36525;49.398;7.614;2023-04-25T13:57:33;5.95;;;1.50;;
50569;SDS011;36525;49.398;7.614;2023-04-25T14:00:01;4.70;;;1.40;;
50569;SDS011;36525;49.398;7.614;2023-04-25T14:02:35;7.15;;;1.85;;
50569;SDS011;36525;49.398;7.614;2023-04-25T14:05:03;5.30;;;1.80;;
50569;SDS011;36525;49.398;7.614;2023-04-25T14:07:33;7.38;;;2.15;;
50569;SDS011;36525;49.398;7.614;2023-04-25T14:10:01;6.18;;;1.90;;
50569;SDS011;36525;49.398;7.614;2023-04-25T14:12:31;5.55;;;1.70;;
50569;SDS011;36525;49.398;7.614;2023-04-25T14:14:59;6.60;;;1.90;;
50569;SDS011;36525;49.398;7.614;2023-04-25T14:17:26;5.07;;;1.60;;
50569;SDS011;36525;49.398;7.614;2023-04-25T14:19:53;6.13;;;1.48;;
50569;SDS011;36525;49.398;7.614;2023-04-25T14:22:21;8.50;;;1.25;;
50569;SDS011;36525;49.398;7.614;2023-04-25T14:24:48;5.68;;;1.50;;
50569;SDS011;36525;49.398;7.614;2023-04-25T14:27:15;5.60;;;1.50;;
50569;SDS011;36525;49.398;7.614;2023-04-25T14:29:42;8.68;;;2.25;;
50569;SDS011;36525;49.398;7.614;2023-04-25T14:32:09;6.93;;;2.00;;
50569;SDS011;36525;49.398;7.614;2023-04-25T14:34:37;6.32;;;1.95;;
50569;SDS011;36525;49.398;7.614;2023-04-25T14:37:04;5.30;;;1.50;;
50569;SDS011;36525;49.398;7.614;2023-04-25T14:39:34;7.72;;;1.50;;
50569;SDS011;36525;49.398;7.614;2023-04-25T14:42:01;7.05;;;1.38;;
50569;SDS011;36525;49.398;7.614;2023-04-25T14:44:29;7.63;;;1.73;;
50569;SDS011;36525;49.398;7.614;2023-04-25T14:46:59;4.38;;;1.50;;
50569;SDS011;36525;49.398;7.614;2023-04-25T14:49:26;6.32;;;1.45;;
50569;SDS011;36525;49.398;7.614;2023-04-25T14:51:54;7.85;;;1.85;;
50569;SDS011;36525;49.398;7.614;2023-04-25T14:54:21;5.25;;;1.80;;
50569;SDS011;36525;49.398;7.614;2023-04-25T14:56:49;7.22;;;1.98;;